Time;durP1;ratioP1;P1;durP2;ratioP2;P2;SDS_P1;SDS_P2;PMS_P1;PMS_P2;Temp;Humidity;BMP_temperature;BMP_pressure;BME280_temperature;BME280_humidity;BME280_pressure;Samples;Min_cycle;Max_cycle;Signal;HPM_P1;HPM_P2
2024/01/29 00:00:25;;;;;;;27.92;10.27;;;7.40;99.90;;;;;;5031478;28;20088;-82
2024/01/29 00:02:50;;;;;;;22.60;10.43;;;7.40;99.90;;;;;;5027421;28;20030;-83
2024/01/29 00:05:16;;;;;;;21.25;10.40;;;7.40;99.90;;;;;;5032081;28;20434;-82
2024/01/29 00:07:41;;;;;;;20.85;10.52;;;7.40;99.90;;;;;;5030721;28;20543;-82
2024/01/29 00:10:07;;;;;;;24.13;9.80;;;7.40;99.90;;;;;;5028854;28;20499;-82
2024/01/29 00:12:34;;;;;;;23.02;10.48;;;7.40;99.90;;;;;;5022743;28;20140;-82
2024/01/29 00:14:59;;;;;;;26.38;10.25;;;7.40;99.90;;;;;;5033406;28;20071;-82
2024/01/29 00:17:25;;;;;;;16.85;9.18;;;7.40;99.90;;;;;;5037101;28;20072;-82
2024/01/29 00:19:50;;;;;;;23.77;9.75;;;7.40;99.90;;;;;;5029457;28;20048;-83
2024/01/29 00:22:16;;;;;;;19.67;9.57;;;7.40;99.90;;;;;;5030398;28;20017;-82
2024/01/29 00:24:41;;;;;;;20.90;10.35;;;7.40;99.90;;;;;;5028875;28;20029;-83
2024/01/29 00:27:07;;;;;;;23.70;10.38;;;7.40;99.90;;;;;;5030732;28;20021;-82
2024/01/29 00:29:33;;;;;;;23.20;10.25;;;7.40;99.90;;;;;;5041251;28;20131;-82
2024/01/29 00:31:58;;;;;;;19.40;9.55;;;7.40;99.90;;;;;;5030770;28;20040;-82
2024/01/29 00:34:24;;;;;;;23.92;10.27;;;7.40;99.90;;;;;;5035289;28;20017;-82
2024/01/29 00:36:49;;;;;;;24.30;9.48;;;7.40;99.90;;;;;;5041666;28;20447;-82
2024/01/29 00:39:15;;;;;;;19.27;9.93;;;7.40;99.90;;;;;;5040104;28;20526;-82
2024/01/29 00:41:40;;;;;;;19.67;10.27;;;7.30;99.90;;;;;;5040535;28;20479;-83
2024/01/29 00:44:06;;;;;;;21.65;9.95;;;7.40;99.90;;;;;;5039367;28;20446;-81
2024/01/29 00:46:32;;;;;;;23.60;10.63;;;7.30;99.90;;;;;;5042827;28;20399;-82
2024/01/29 00:48:57;;;;;;;19.05;8.60;;;7.40;99.90;;;;;;5040000;28;20025;-82
2024/01/29 00:51:23;;;;;;;20.73;9.65;;;7.30;99.90;;;;;;5036580;28;20402;-82
2024/01/29 00:53:49;;;;;;;18.38;8.77;;;7.30;99.90;;;;;;5041742;28;20029;-82
2024/01/29 00:56:14;;;;;;;21.20;9.60;;;7.30;99.90;;;;;;5031588;28;20024;-82
2024/01/29 00:58:43;;;;;;;19.05;10.13;;;7.40;99.90;;;;;;5036184;28;20151;-81
2024/01/29 01:01:09;;;;;;;15.52;9.13;;;7.40;99.90;;;;;;5037174;28;20018;-82
2024/01/29 01:03:35;;;;;;;22.38;10.00;;;7.40;99.90;;;;;;5039649;28;20014;-83
2024/01/29 01:06:00;;;;;;;16.58;9.20;;;7.30;99.90;;;;;;5033860;28;20549;-82
2024/01/29 01:08:26;;;;;;;18.17;9.20;;;7.30;99.90;;;;;;5040908;28;20044;-83
2024/01/29 01:10:52;;;;;;;19.88;10.48;;;7.30;99.90;;;;;;5036904;28;20026;-82
2024/01/29 01:13:17;;;;;;;17.17;8.98;;;7.30;99.90;;;;;;5040028;28;20029;-81
2024/01/29 01:15:43;;;;;;;21.65;10.55;;;7.30;99.90;;;;;;5033634;28;20068;-82
2024/01/29 01:18:08;;;;;;;20.95;9.35;;;7.30;99.90;;;;;;5033075;28;20026;-82
2024/01/29 01:20:34;;;;;;;21.33;9.98;;;7.30;99.90;;;;;;5041248;28;20067;-81
2024/01/29 01:23:01;;;;;;;18.60;9.13;;;7.30;99.90;;;;;;5029475;28;20022;-82
2024/01/29 01:25:27;;;;;;;22.90;9.77;;;7.30;99.90;;;;;;5035961;28;20025;-83
2024/01/29 01:27:53;;;;;;;24.50;9.30;;;7.30;99.90;;;;;;5031374;28;20048;-82
2024/01/29 01:30:20;;;;;;;18.90;8.75;;;7.30;99.90;;;;;;5036912;28;20045;-82
2024/01/29 01:32:46;;;;;;;17.33;8.95;;;7.30;99.90;;;;;;5045909;28;20032;-81
2024/01/29 01:35:12;;;;;;;19.55;9.45;;;7.30;99.90;;;;;;5027779;28;20028;-82
2024/01/29 01:37:37;;;;;;;25.98;10.20;;;7.30;99.90;;;;;;5032885;28;20479;-81
2024/01/29 01:40:04;;;;;;;20.90;9.82;;;7.30;99.90;;;;;;5029844;28;20029;-82
2024/01/29 01:42:30;;;;;;;21.20;8.98;;;7.30;99.90;;;;;;5032262;28;20018;-82
2024/01/29 01:44:56;;;;;;;18.00;9.55;;;7.30;99.90;;;;;;5032204;28;20398;-82
2024/01/29 01:47:21;;;;;;;16.77;8.35;;;7.30;99.90;;;;;;5029681;28;20033;-84
2024/01/29 01:49:47;;;;;;;19.15;10.05;;;7.30;99.90;;;;;;5035681;28;20029;-82
2024/01/29 01:52:15;;;;;;;18.45;8.73;;;7.30;99.90;;;;;;5028394;28;20032;-82
2024/01/29 01:54:40;;;;;;;20.17;9.13;;;7.30;99.90;;;;;;5037051;28;20029;-82
2024/01/29 01:57:07;;;;;;;26.70;10.02;;;7.30;99.90;;;;;;5034536;28;20060;-82
2024/01/29 01:59:34;;;;;;;20.65;9.10;;;7.30;99.90;;;;;;5039077;28;20031;-82
2024/01/29 02:02:00;;;;;;;18.38;9.70;;;7.30;99.90;;;;;;5035465;28;20021;-81
2024/01/29 02:04:26;;;;;;;22.67;9.45;;;7.30;99.90;;;;;;5034001;28;20025;-82
2024/01/29 02:06:51;;;;;;;16.02;8.20;;;7.20;99.90;;;;;;5034252;28;20033;-82
2024/01/29 02:09:18;;;;;;;18.40;9.00;;;7.30;99.90;;;;;;5033820;28;20140;-82
2024/01/29 02:11:44;;;;;;;20.90;9.30;;;7.30;99.90;;;;;;5038059;28;20020;-83
2024/01/29 02:14:10;;;;;;;16.73;8.52;;;7.30;99.90;;;;;;5036160;28;20555;-83
2024/01/29 02:16:35;;;;;;;16.70;8.57;;;7.20;99.90;;;;;;5034259;28;20064;-82
2024/01/29 02:19:09;;;;;;;18.95;8.85;;;7.20;99.90;;;;;;5031183;28;20056;-83
2024/01/29 02:21:34;;;;;;;20.52;9.48;;;7.20;99.90;;;;;;5035370;28;20026;-82
2024/01/29 02:24:00;;;;;;;17.67;8.57;;;7.20;99.90;;;;;;5023070;28;20589;-82
2024/01/29 02:26:25;;;;;;;19.77;8.35;;;7.20;99.90;;;;;;5029093;28;20029;-82
2024/01/29 02:28:51;;;;;;;19.55;9.75;;;7.20;99.90;;;;;;5037079;28;20033;-82
2024/01/29 02:31:16;;;;;;;19.02;8.65;;;7.20;99.90;;;;;;5030124;28;20030;-82
2024/01/29 02:33:42;;;;;;;25.00;9.52;;;7.20;99.90;;;;;;5038570;28;20040;-81
2024/01/29 02:36:07;;;;;;;18.02;8.65;;;7.20;99.90;;;;;;5037686;28;20017;-83
2024/01/29 02:38:34;;;;;;;17.63;9.10;;;7.20;99.90;;;;;;5034018;28;20017;-81
2024/01/29 02:40:59;;;;;;;19.05;8.85;;;7.20;99.90;;;;;;5036347;28;20115;-82
2024/01/29 02:43:25;;;;;;;22.23;9.35;;;7.20;99.90;;;;;;5032043;28;20014;-82
2024/01/29 02:45:51;;;;;;;20.05;7.85;;;7.20;99.90;;;;;;5038066;28;20026;-82
2024/01/29 02:48:17;;;;;;;13.93;8.27;;;7.20;99.90;;;;;;5027936;28;20031;-81
2024/01/29 02:50:43;;;;;;;21.20;9.65;;;7.20;99.90;;;;;;5037250;28;20025;-82
2024/01/29 02:53:08;;;;;;;22.17;8.82;;;7.30;99.90;;;;;;5032139;28;20063;-81
2024/01/29 02:55:34;;;;;;;14.30;7.30;;;7.20;99.90;;;;;;5030219;28;20030;-83
2024/01/29 02:57:59;;;;;;;16.83;8.18;;;7.30;99.90;;;;;;5023244;28;20076;-82
2024/01/29 03:00:25;;;;;;;15.27;7.80;;;7.30;99.90;;;;;;5027822;28;20025;-82
2024/01/29 03:02:50;;;;;;;18.35;8.38;;;7.20;99.90;;;;;;5030437;28;20052;-82
2024/01/29 03:05:16;;;;;;;18.55;8.45;;;7.20;99.90;;;;;;5034673;28;20040;-82
2024/01/29 03:07:41;;;;;;;12.65;7.38;;;7.20;99.90;;;;;;5038217;28;20025;-82
2024/01/29 03:10:07;;;;;;;14.98;7.55;;;7.20;99.90;;;;;;5025528;28;20062;-82
2024/01/29 03:12:33;;;;;;;19.27;8.15;;;7.20;99.90;;;;;;5026629;28;20026;-82
2024/01/29 03:14:59;;;;;;;18.08;7.88;;;7.20;99.90;;;;;;5029306;28;20032;-82
2024/01/29 03:17:24;;;;;;;14.68;7.43;;;7.20;99.90;;;;;;5031773;28;20025;-82
2024/01/29 03:19:50;;;;;;;17.77;8.45;;;7.20;99.90;;;;;;5035849;28;20021;-82
2024/01/29 03:22:15;;;;;;;20.88;7.07;;;7.20;99.90;;;;;;5037220;28;20021;-82
2024/01/29 03:24:41;;;;;;;13.10;7.65;;;7.20;99.90;;;;;;5032207;28;20025;-81
2024/01/29 03:27:06;;;;;;;14.27;7.63;;;7.20;99.90;;;;;;5031514;28;20021;-81
2024/01/29 03:29:32;;;;;;;15.63;8.23;;;7.20;99.90;;;;;;5037378;28;20033;-81
2024/01/29 03:31:57;;;;;;;23.08;8.45;;;7.20;99.90;;;;;;5033750;28;20033;-82
2024/01/29 03:34:23;;;;;;;17.25;7.90;;;7.20;99.90;;;;;;5034116;28;20028;-83
2024/01/29 03:36:48;;;;;;;18.70;8.23;;;7.20;99.90;;;;;;5028495;28;20083;-82
2024/01/29 03:39:14;;;;;;;11.90;6.95;;;7.20;99.90;;;;;;5028288;28;20061;-83
2024/01/29 03:41:39;;;;;;;15.57;7.50;;;7.20;99.90;;;;;;5037282;28;20013;-81
2024/01/29 03:44:05;;;;;;;13.73;7.13;;;7.20;99.90;;;;;;5033965;28;20033;-83
2024/01/29 03:46:30;;;;;;;17.17;7.72;;;7.10;99.90;;;;;;5033244;28;20025;-82
2024/01/29 03:48:56;;;;;;;17.27;8.38;;;7.10;99.90;;;;;;5038779;28;20029;-82
2024/01/29 03:51:22;;;;;;;15.93;7.72;;;7.20;99.90;;;;;;5024572;28;20056;-83
2024/01/29 03:53:47;;;;;;;12.25;7.45;;;7.20;99.90;;;;;;5030066;28;20032;-82
2024/01/29 03:56:15;;;;;;;18.35;8.10;;;7.20;99.90;;;;;;5037109;28;20474;-83
2024/01/29 03:58:41;;;;;;;15.80;7.65;;;7.20;99.90;;;;;;5032848;28;20018;-82
2024/01/29 04:01:06;;;;;;;16.25;7.32;;;7.20;99.90;;;;;;5026023;28;20499;-82
2024/01/29 04:03:32;;;;;;;17.25;7.80;;;7.10;99.90;;;;;;5028947;28;20106;-82
2024/01/29 04:05:57;;;;;;;17.52;8.00;;;7.20;99.90;;;;;;5033546;28;20040;-82
2024/01/29 04:08:23;;;;;;;22.23;8.07;;;7.20;99.90;;;;;;5037070;28;20027;-82
2024/01/29 04:10:48;;;;;;;13.75;7.55;;;7.20;99.90;;;;;;5036368;28;20541;-83
2024/01/29 04:13:14;;;;;;;15.85;7.40;;;7.20;99.90;;;;;;5034687;28;20040;-83
2024/01/29 04:15:39;;;;;;;19.77;8.15;;;7.20;99.90;;;;;;5035889;28;20022;-82
2024/01/29 04:18:05;;;;;;;19.30;8.15;;;7.10;99.90;;;;;;5035012;28;20136;-82
2024/01/29 04:20:31;;;;;;;16.88;8.50;;;7.10;99.90;;;;;;5036753;28;20021;-82
2024/01/29 04:22:56;;;;;;;13.55;7.60;;;7.10;99.90;;;;;;5034827;28;20123;-82
2024/01/29 04:25:22;;;;;;;16.00;7.63;;;7.10;99.90;;;;;;5032079;28;20025;-82
2024/01/29 04:27:48;;;;;;;18.48;8.05;;;7.10;99.90;;;;;;5031953;28;20033;-82
2024/01/29 04:30:14;;;;;;;15.63;8.75;;;7.10;99.90;;;;;;5032803;28;20399;-82
2024/01/29 04:32:40;;;;;;;18.00;8.02;;;7.20;99.90;;;;;;5036746;28;20033;-84
2024/01/29 04:35:05;;;;;;;20.42;8.63;;;7.10;99.90;;;;;;5033957;28;20112;-82
2024/01/29 04:37:31;;;;;;;17.02;7.13;;;7.10;99.90;;;;;;5025947;28;20371;-84
2024/01/29 04:39:57;;;;;;;17.88;7.60;;;7.10;99.90;;;;;;5030516;28;20036;-81
2024/01/29 04:42:22;;;;;;;16.13;7.72;;;7.10;99.90;;;;;;5031085;28;20025;-83
2024/01/29 04:44:48;;;;;;;16.95;7.47;;;7.10;99.90;;;;;;5036346;28;20032;-82
2024/01/29 04:47:13;;;;;;;15.63;8.25;;;7.10;99.90;;;;;;5039306;28;20033;-83
2024/01/29 04:49:39;;;;;;;18.60;8.02;;;7.10;99.90;;;;;;5037387;28;20024;-82
2024/01/29 04:52:05;;;;;;;15.45;7.60;;;7.10;99.90;;;;;;5036060;28;20021;-82
2024/01/29 04:54:30;;;;;;;16.13;8.13;;;7.10;99.90;;;;;;5030848;28;20052;-81
2024/01/29 04:56:56;;;;;;;16.83;8.18;;;7.10;99.90;;;;;;5029979;28;20120;-83
2024/01/29 04:59:21;;;;;;;14.80;7.85;;;7.10;99.90;;;;;;5040840;28;20025;-82
2024/01/29 05:01:47;;;;;;;20.20;8.90;;;7.10;99.90;;;;;;5032503;28;20018;-82
2024/01/29 05:04:13;;;;;;;13.57;7.57;;;7.10;99.90;;;;;;5028154;28;20034;-85
2024/01/29 05:06:38;;;;;;;17.85;8.23;;;7.10;99.90;;;;;;5032944;28;20028;-82
2024/01/29 05:09:04;;;;;;;13.35;7.13;;;7.10;99.90;;;;;;5035285;28;20026;-82
2024/01/29 05:11:29;;;;;;;14.73;7.90;;;7.10;99.90;;;;;;5037604;28;21137;-83
2024/01/29 05:13:55;;;;;;;16.63;8.25;;;7.10;99.90;;;;;;5034869;28;20667;-82
2024/01/29 05:16:20;;;;;;;19.13;8.13;;;7.10;99.90;;;;;;5021555;28;20395;-83
2024/01/29 05:18:47;;;;;;;14.82;7.70;;;7.10;99.90;;;;;;5032160;28;20100;-83
2024/01/29 05:21:13;;;;;;;14.73;8.57;;;7.10;99.90;;;;;;5035379;28;20052;-83
2024/01/29 05:23:39;;;;;;;15.45;8.18;;;7.10;99.90;;;;;;5036950;28;20013;-81
2024/01/29 05:26:04;;;;;;;15.85;8.43;;;7.10;99.90;;;;;;5029274;28;20025;-81
2024/01/29 05:28:30;;;;;;;14.80;7.25;;;7.10;99.90;;;;;;5028479;28;20128;-82
2024/01/29 05:30:56;;;;;;;17.50;8.13;;;7.10;99.90;;;;;;5040181;28;20025;-82
2024/01/29 05:33:21;;;;;;;14.45;8.27;;;7.10;99.90;;;;;;5036932;28;20076;-83
2024/01/29 05:35:47;;;;;;;19.30;8.88;;;7.00;99.90;;;;;;5036702;28;20028;-82
2024/01/29 05:38:12;;;;;;;19.08;9.00;;;7.10;99.90;;;;;;5033149;28;20022;-82
2024/01/29 05:40:38;;;;;;;13.27;7.25;;;7.10;99.90;;;;;;5023538;28;20029;-82
2024/01/29 05:43:03;;;;;;;14.77;8.50;;;7.10;99.90;;;;;;5029072;28;20049;-81
2024/01/29 05:45:29;;;;;;;20.55;8.40;;;7.10;99.90;;;;;;5035036;28;20032;-83
2024/01/29 05:47:54;;;;;;;18.75;7.72;;;7.10;99.90;;;;;;5037064;28;20030;-83
2024/01/29 05:50:20;;;;;;;16.63;8.07;;;7.10;99.90;;;;;;5036188;28;20025;-83
2024/01/29 05:52:46;;;;;;;16.20;8.52;;;7.10;99.90;;;;;;5027356;28;20503;-82
2024/01/29 05:55:12;;;;;;;18.38;8.70;;;7.10;99.90;;;;;;5030773;28;20030;-83
2024/01/29 05:57:37;;;;;;;14.77;7.68;;;7.10;99.90;;;;;;5031435;28;20025;-82
2024/01/29 06:00:09;;;;;;;19.35;7.80;;;7.10;99.90;;;;;;5037144;28;20025;-84
2024/01/29 06:02:34;;;;;;;17.75;8.38;;;7.10;99.90;;;;;;5038856;28;20515;-82
2024/01/29 06:05:00;;;;;;;16.75;8.30;;;7.10;99.90;;;;;;5038095;28;20031;-82
2024/01/29 06:07:25;;;;;;;16.25;7.80;;;7.10;99.90;;;;;;5030233;28;20099;-82
2024/01/29 06:09:51;;;;;;;16.58;8.02;;;7.10;99.90;;;;;;5036746;28;20116;-81
2024/01/29 06:12:16;;;;;;;16.83;8.48;;;7.10;99.90;;;;;;5037025;28;20053;-81
2024/01/29 06:14:42;;;;;;;14.40;8.13;;;7.00;99.90;;;;;;5037001;28;20479;-82
2024/01/29 06:17:08;;;;;;;14.35;8.20;;;7.00;99.90;;;;;;5039395;28;20028;-82
2024/01/29 06:19:33;;;;;;;18.25;8.23;;;7.00;99.90;;;;;;5032886;28;20108;-81
2024/01/29 06:21:59;;;;;;;14.57;8.27;;;7.00;99.90;;;;;;5035992;28;20108;-82
2024/01/29 06:24:24;;;;;;;13.63;7.80;;;7.00;99.90;;;;;;5035521;28;20557;-82
2024/01/29 06:26:50;;;;;;;14.82;7.78;;;7.00;99.90;;;;;;5037286;28;20712;-82
2024/01/29 06:29:15;;;;;;;18.02;8.63;;;7.00;99.90;;;;;;5030930;28;20491;-82
2024/01/29 06:31:41;;;;;;;17.90;8.32;;;7.00;99.90;;;;;;5032111;28;20392;-84
2024/01/29 06:34:07;;;;;;;17.63;8.13;;;7.00;99.90;;;;;;5037621;28;20052;-82
2024/01/29 06:36:33;;;;;;;21.15;8.75;;;7.00;99.90;;;;;;5034913;28;20029;-82
2024/01/29 06:38:58;;;;;;;15.98;8.50;;;7.00;99.90;;;;;;5037701;28;20035;-81
2024/01/29 06:41:26;;;;;;;12.95;7.70;;;7.00;99.90;;;;;;5032985;28;20121;-81
2024/01/29 06:43:52;;;;;;;19.20;8.18;;;7.00;99.90;;;;;;5032923;28;20487;-83
2024/01/29 06:46:18;;;;;;;21.17;8.65;;;7.00;99.90;;;;;;5034913;28;20030;-81
2024/01/29 06:48:44;;;;;;;17.27;8.68;;;7.00;99.90;;;;;;5031326;28;20046;-82
2024/01/29 06:51:10;;;;;;;14.60;8.77;;;7.00;99.90;;;;;;5043015;28;20021;-81
2024/01/29 06:53:36;;;;;;;17.73;8.23;;;6.90;99.90;;;;;;5034515;28;20025;-82
2024/01/29 06:56:04;;;;;;;14.73;8.30;;;7.00;99.90;;;;;;5031104;28;20116;-81
2024/01/29 06:58:30;;;;;;;15.10;8.35;;;7.00;99.90;;;;;;5029194;28;20022;-81
2024/01/29 07:00:56;;;;;;;16.65;8.85;;;7.00;99.90;;;;;;5036635;28;20766;-84
2024/01/29 07:03:21;;;;;;;17.88;8.73;;;7.00;99.90;;;;;;5034021;28;20021;-81
2024/01/29 07:05:50;;;;;;;14.25;7.65;;;7.00;99.90;;;;;;5030686;28;20029;-84
2024/01/29 07:08:16;;;;;;;21.50;8.60;;;6.90;99.90;;;;;;5037132;28;20027;-82
2024/01/29 07:10:42;;;;;;;18.67;9.02;;;6.90;99.90;;;;;;5031350;28;20033;-85
2024/01/29 07:13:07;;;;;;;17.40;8.25;;;7.00;99.90;;;;;;5035472;28;20029;-84
2024/01/29 07:15:33;;;;;;;15.65;7.82;;;7.00;99.90;;;;;;5036284;28;20471;-84
2024/01/29 07:17:59;;;;;;;14.32;7.72;;;7.00;99.90;;;;;;5032299;28;20030;-82
2024/01/29 07:20:27;;;;;;;15.18;7.75;;;7.00;99.90;;;;;;5038563;28;20535;-82
2024/01/29 07:22:53;;;;;;;24.83;8.68;;;7.00;99.90;;;;;;5036413;28;20017;-82
2024/01/29 07:25:18;;;;;;;16.55;8.07;;;7.00;99.90;;;;;;5034780;28;20036;-81
2024/01/29 07:27:44;;;;;;;18.13;8.52;;;7.00;99.90;;;;;;5038997;28;20095;-81
2024/01/29 07:30:11;;;;;;;14.55;8.00;;;7.00;99.90;;;;;;5029285;28;20125;-81
2024/01/29 07:32:36;;;;;;;18.77;9.18;;;7.00;99.90;;;;;;5030382;28;20079;-83
2024/01/29 07:35:03;;;;;;;16.25;7.95;;;7.00;99.90;;;;;;5031437;28;20030;-81
2024/01/29 07:37:29;;;;;;;23.15;8.90;;;7.00;99.90;;;;;;5034932;28;20510;-82
2024/01/29 07:39:55;;;;;;;13.23;7.97;;;7.00;99.90;;;;;;5035945;28;20095;-82
2024/01/29 07:42:21;;;;;;;15.50;7.72;;;7.00;99.90;;;;;;5036179;28;20487;-84
2024/01/29 07:44:47;;;;;;;19.38;8.77;;;7.10;99.90;;;;;;5035363;28;20033;-82
2024/01/29 07:47:13;;;;;;;18.23;8.93;;;7.10;99.90;;;;;;5033447;28;20076;-82
2024/01/29 07:49:39;;;;;;;17.20;8.98;;;7.10;99.90;;;;;;5035292;28;20056;-82
2024/01/29 07:52:05;;;;;;;20.13;9.20;;;7.10;99.90;;;;;;5046334;28;20033;-84
2024/01/29 07:54:31;;;;;;;16.23;8.85;;;7.10;99.90;;;;;;5046927;28;20549;-83
2024/01/29 07:56:56;;;;;;;14.98;8.23;;;7.10;99.90;;;;;;5035023;28;20109;-83
2024/01/29 07:59:23;;;;;;;24.70;9.77;;;7.10;99.90;;;;;;5037987;28;20578;-82
2024/01/29 08:01:49;;;;;;;19.48;9.68;;;7.10;99.90;;;;;;5043988;28;20033;-83
2024/01/29 08:04:14;;;;;;;24.65;9.60;;;7.20;99.90;;;;;;5036953;28;20021;-83
2024/01/29 08:06:40;;;;;;;16.50;9.23;;;7.20;99.90;;;;;;5039116;28;20086;-82
2024/01/29 08:09:05;;;;;;;14.77;8.18;;;7.20;99.90;;;;;;5038087;28;20491;-83
2024/01/29 08:11:31;;;;;;;19.80;9.68;;;7.20;99.90;;;;;;5032972;28;20044;-83
2024/01/29 08:13:58;;;;;;;20.05;9.50;;;7.20;99.90;;;;;;5037899;28;20124;-81
2024/01/29 08:16:24;;;;;;;17.67;10.10;;;7.20;99.90;;;;;;5028011;28;20043;-82
2024/01/29 08:18:50;;;;;;;15.95;8.82;;;7.20;99.90;;;;;;5032871;28;20580;-82
2024/01/29 08:21:16;;;;;;;20.13;9.43;;;7.20;99.90;;;;;;5026857;28;20078;-82
2024/01/29 08:23:42;;;;;;;23.05;9.20;;;7.30;99.90;;;;;;5033416;28;20017;-82
2024/01/29 08:26:08;;;;;;;20.73;9.90;;;7.30;99.90;;;;;;5023278;28;20080;-83
2024/01/29 08:28:34;;;;;;;27.25;9.30;;;7.30;99.90;;;;;;5018811;28;20030;-82
2024/01/29 08:31:00;;;;;;;21.45;9.63;;;7.40;99.90;;;;;;5025073;28;20146;-83
2024/01/29 08:33:26;;;;;;;23.20;9.77;;;7.40;99.90;;;;;;5024627;28;20530;-83
2024/01/29 08:35:52;;;;;;;22.17;10.95;;;7.40;99.90;;;;;;5028423;28;20064;-83
2024/01/29 08:38:17;;;;;;;24.48;10.32;;;7.40;99.90;;;;;;5032231;28;20057;-81
2024/01/29 08:40:43;;;;;;;23.88;9.48;;;7.50;99.90;;;;;;5029815;28;21557;-82
2024/01/29 08:43:09;;;;;;;22.05;9.88;;;7.50;99.90;;;;;;5030406;28;20032;-82
2024/01/29 08:45:35;;;;;;;22.85;10.10;;;7.50;99.90;;;;;;5034915;28;20487;-82
2024/01/29 08:48:03;;;;;;;22.65;9.93;;;7.60;99.90;;;;;;5040542;28;20040;-82
2024/01/29 08:50:32;;;;;;;24.92;10.45;;;7.60;99.90;;;;;;5039146;28;20033;-84
2024/01/29 08:52:57;;;;;;;23.38;9.95;;;7.60;99.90;;;;;;5041701;28;20442;-82
2024/01/29 08:55:23;;;;;;;20.10;10.38;;;7.60;99.90;;;;;;5037328;28;20029;-83
2024/01/29 08:57:49;;;;;;;20.70;10.20;;;7.70;99.90;;;;;;5042679;28;20058;-82
2024/01/29 09:00:15;;;;;;;18.48;9.70;;;7.70;99.90;;;;;;5048546;28;20017;-83
2024/01/29 09:02:41;;;;;;;21.45;9.68;;;7.70;99.90;;;;;;5037128;28;20017;-82
2024/01/29 09:05:08;;;;;;;19.58;9.63;;;7.80;99.90;;;;;;5039679;28;20021;-83
2024/01/29 09:07:34;;;;;;;22.08;10.30;;;7.80;99.90;;;;;;5036305;28;20036;-83
2024/01/29 09:09:59;;;;;;;21.58;10.30;;;7.80;99.90;;;;;;5042626;28;20029;-82
2024/01/29 09:12:25;;;;;;;20.45;10.20;;;7.80;99.90;;;;;;5040008;28;20029;-82
2024/01/29 09:14:51;;;;;;;24.30;10.18;;;7.80;99.90;;;;;;5038353;28;20021;-82
2024/01/29 09:17:16;;;;;;;18.60;9.18;;;7.90;99.90;;;;;;5033500;28;20028;-82
2024/01/29 09:19:45;;;;;;;22.60;10.93;;;7.90;99.90;;;;;;5039373;28;20017;-83
2024/01/29 09:22:11;;;;;;;21.27;10.10;;;8.00;99.90;;;;;;5031641;28;20475;-83
2024/01/29 09:24:36;;;;;;;22.60;10.82;;;8.00;99.90;;;;;;5033102;28;20092;-82
2024/01/29 09:27:02;;;;;;;23.17;11.10;;;8.00;99.90;;;;;;5038277;28;20113;-82
2024/01/29 09:29:27;;;;;;;23.48;10.43;;;8.00;99.90;;;;;;5031944;28;20240;-82
2024/01/29 09:31:53;;;;;;;21.98;10.32;;;8.10;99.90;;;;;;5037628;28;20040;-81
2024/01/29 09:34:20;;;;;;;19.58;9.40;;;8.10;99.90;;;;;;5041565;28;20039;-85
2024/01/29 09:36:46;;;;;;;30.95;11.13;;;8.20;99.90;;;;;;5034290;28;20017;-83
2024/01/29 09:39:11;;;;;;;22.33;11.38;;;8.20;99.90;;;;;;5037475;28;20018;-82
2024/01/29 09:41:38;;;;;;;20.95;10.88;;;8.20;99.90;;;;;;5036560;28;20029;-83
2024/01/29 09:44:06;;;;;;;21.13;10.77;;;8.30;99.90;;;;;;5040954;28;20029;-83
2024/01/29 09:46:36;;;;;;;21.02;10.85;;;8.30;99.90;;;;;;5035113;28;20021;-81
2024/01/29 09:49:02;;;;;;;26.13;11.95;;;8.40;99.90;;;;;;5033572;28;20014;-82
2024/01/29 09:51:29;;;;;;;18.95;10.95;;;8.40;99.90;;;;;;5036103;28;20376;-85
2024/01/29 09:53:55;;;;;;;25.13;10.98;;;8.40;99.90;;;;;;5035077;28;20049;-82
2024/01/29 09:56:21;;;;;;;22.08;10.55;;;8.50;99.90;;;;;;5038062;28;20013;-82
2024/01/29 09:58:46;;;;;;;22.83;11.00;;;8.60;99.90;;;;;;5038443;28;20029;-81
2024/01/29 10:01:14;;;;;;;21.10;10.00;;;8.60;99.90;;;;;;5035221;28;20120;-81
2024/01/29 10:03:41;;;;;;;20.48;11.32;;;8.60;99.90;;;;;;5038386;28;20025;-82
2024/01/29 10:06:07;;;;;;;22.90;10.88;;;8.50;99.90;;;;;;5033101;28;20033;-82
2024/01/29 10:08:33;;;;;;;23.60;12.13;;;8.60;99.90;;;;;;5037352;28;20398;-82
2024/01/29 10:10:59;;;;;;;24.10;11.98;;;8.60;99.90;;;;;;5039055;28;20045;-82
2024/01/29 10:13:25;;;;;;;21.75;11.90;;;8.60;99.90;;;;;;5036330;28;20021;-83
2024/01/29 10:15:53;;;;;;;22.30;11.95;;;8.40;99.90;;;;;;5033342;28;20045;-83
2024/01/29 10:18:19;;;;;;;26.50;12.50;;;8.20;99.90;;;;;;5032413;28;20024;-83
2024/01/29 10:20:45;;;;;;;23.33;11.93;;;8.10;99.90;;;;;;5031326;28;20021;-83
2024/01/29 10:23:10;;;;;;;24.85;12.20;;;8.00;99.90;;;;;;5034997;28;20100;-82
2024/01/29 10:25:38;;;;;;;29.27;12.25;;;8.00;99.90;;;;;;5030164;28;20036;-82
2024/01/29 10:28:11;;;;;;;20.13;10.77;;;7.90;99.90;;;;;;5030875;28;20029;-82
2024/01/29 10:30:41;;;;;;;28.42;13.32;;;7.90;99.90;;;;;;5030276;28;20483;-83
2024/01/29 10:33:07;;;;;;;26.60;11.82;;;8.00;99.90;;;;;;5037307;28;20033;-82
2024/01/29 10:35:33;;;;;;;23.13;11.30;;;7.90;99.90;;;;;;5040892;28;20067;-82
2024/01/29 10:38:04;;;;;;;21.65;11.70;;;8.00;99.90;;;;;;5039562;28;20542;-81
2024/01/29 10:40:31;;;;;;;25.13;12.13;;;8.00;99.90;;;;;;5031348;28;20450;-83
2024/01/29 10:42:59;;;;;;;24.88;11.30;;;8.00;99.90;;;;;;5027458;28;20021;-82
2024/01/29 10:45:25;;;;;;;23.50;11.98;;;8.00;99.90;;;;;;5037962;28;20046;-82
2024/01/29 10:48:21;;;;;;;24.38;11.93;;;8.00;99.90;;;;;;5029756;28;20627;-82
2024/01/29 10:50:49;;;;;;;26.35;11.40;;;8.00;99.90;;;;;;5019744;28;20036;-83
2024/01/29 10:53:18;;;;;;;22.70;11.07;;;8.00;99.90;;;;;;5030188;28;20100;-83
2024/01/29 10:55:45;;;;;;;23.02;12.50;;;8.10;99.90;;;;;;5035278;28;20042;-81
2024/01/29 10:58:12;;;;;;;25.35;11.68;;;8.10;99.90;;;;;;5035662;28;20025;-83
2024/01/29 11:00:40;;;;;;;21.58;10.10;;;8.10;99.90;;;;;;5035251;28;20032;-81
2024/01/29 11:03:08;;;;;;;19.70;11.10;;;8.10;99.90;;;;;;5034569;28;20017;-83
2024/01/29 11:05:35;;;;;;;22.35;12.25;;;8.10;99.90;;;;;;5035535;28;20436;-82
2024/01/29 11:08:03;;;;;;;21.85;10.88;;;8.10;99.90;;;;;;5039610;28;20121;-82
2024/01/29 11:10:30;;;;;;;22.35;11.60;;;8.10;99.90;;;;;;5034535;28;20052;-82
2024/01/29 11:12:58;;;;;;;21.30;12.00;;;8.20;99.90;;;;;;5027768;28;20036;-83
2024/01/29 11:15:24;;;;;;;25.30;12.10;;;8.30;99.90;;;;;;5036624;28;20026;-83
2024/01/29 11:17:49;;;;;;;25.67;11.82;;;8.30;99.90;;;;;;5026621;28;20479;-83
2024/01/29 11:20:17;;;;;;;21.30;11.00;;;8.30;99.90;;;;;;5031524;28;20025;-81
2024/01/29 11:22:59;;;;;;;23.20;11.50;;;8.30;99.90;;;;;;5035823;28;20399;-83
2024/01/29 11:25:29;;;;;;;25.05;12.27;;;8.30;99.90;;;;;;5032171;28;20033;-83
2024/01/29 11:27:56;;;;;;;27.25;11.93;;;8.30;99.90;;;;;;5030300;28;20021;-82
2024/01/29 11:30:26;;;;;;;25.23;11.50;;;8.30;99.90;;;;;;5026602;28;20132;-83
2024/01/29 11:32:55;;;;;;;24.63;12.38;;;8.30;99.90;;;;;;5030701;28;20045;-82
2024/01/29 11:35:26;;;;;;;23.95;12.23;;;8.30;99.90;;;;;;5020937;28;20025;-84
2024/01/29 11:37:52;;;;;;;22.88;12.10;;;8.30;99.90;;;;;;5028258;28;20388;-82
2024/01/29 11:40:35;;;;;;;21.75;11.48;;;8.30;99.90;;;;;;5026477;28;20047;-82
2024/01/29 11:43:03;;;;;;;22.83;11.93;;;8.30;99.90;;;;;;5028606;28;20476;-84
2024/01/29 11:45:32;;;;;;;19.77;11.02;;;8.30;99.90;;;;;;5026525;28;20387;-82
2024/01/29 11:48:00;;;;;;;22.08;10.93;;;8.40;99.90;;;;;;5032916;28;20029;-82
2024/01/29 11:50:26;;;;;;;21.48;11.70;;;8.40;99.90;;;;;;5030799;28;20029;-82
2024/01/29 11:52:52;;;;;;;23.15;11.55;;;8.40;99.90;;;;;;5035994;28;20036;-82
2024/01/29 11:55:21;;;;;;;27.27;11.95;;;8.40;99.90;;;;;;5034352;28;20051;-82
2024/01/29 11:57:48;;;;;;;29.65;12.23;;;8.40;99.90;;;;;;5031002;28;20040;-83
2024/01/29 12:00:18;;;;;;;23.15;12.35;;;8.40;99.90;;;;;;5016824;28;20025;-83
2024/01/29 12:02:45;;;;;;;23.90;12.38;;;8.40;99.90;;;;;;5025064;28;20013;-82
2024/01/29 12:05:13;;;;;;;19.73;11.60;;;8.40;99.90;;;;;;5019739;28;20033;-82
2024/01/29 12:07:39;;;;;;;26.20;12.43;;;8.40;99.90;;;;;;5019123;28;20021;-82
2024/01/29 12:10:05;;;;;;;26.67;12.10;;;8.40;99.90;;;;;;5028162;28;20045;-83
2024/01/29 12:12:30;;;;;;;21.98;11.48;;;8.40;99.90;;;;;;5037697;28;20082;-84
2024/01/29 12:14:56;;;;;;;23.67;12.02;;;8.40;99.90;;;;;;5035389;28;20117;-81
2024/01/29 12:17:22;;;;;;;25.65;11.65;;;8.30;99.90;;;;;;5042373;28;20119;-82
2024/01/29 12:19:51;;;;;;;27.92;12.43;;;8.30;99.90;;;;;;5037388;28;20017;-82
2024/01/29 12:22:18;;;;;;;25.92;12.10;;;8.30;99.90;;;;;;5031304;28;20022;-83
2024/01/29 12:24:44;;;;;;;27.17;12.52;;;8.30;99.90;;;;;;5038970;28;20025;-82
2024/01/29 12:27:10;;;;;;;26.70;12.63;;;8.30;99.90;;;;;;5035684;28;20029;-82
2024/01/29 12:29:36;;;;;;;26.70;12.55;;;8.20;99.90;;;;;;5027083;28;20029;-82
2024/01/29 12:32:11;;;;;;;26.73;12.77;;;8.20;99.90;;;;;;5031018;28;20018;-80
2024/01/29 12:34:48;;;;;;;25.05;12.65;;;8.20;99.90;;;;;;5032319;28;20040;-80
2024/01/29 12:37:25;;;;;;;26.80;13.55;;;8.20;99.90;;;;;;5035276;28;20024;-81